createdAt,value
2022-10-21T00:00:57.481Z,15.90
2022-10-21T00:03:45.181Z,15.90
2022-10-21T00:06:32.424Z,15.90
2022-10-21T00:09:19.605Z,15.80
2022-10-21T00:12:06.835Z,15.60
2022-10-21T00:14:56.449Z,15.60
2022-10-21T00:17:43.811Z,15.50
2022-10-21T00:20:32.707Z,15.60
2022-10-21T00:23:20.305Z,15.70
2022-10-21T00:26:07.889Z,15.80
2022-10-21T00:28:58.591Z,15.80
2022-10-21T00:31:46.072Z,15.90
2022-10-21T00:34:34.108Z,16.00
2022-10-21T00:37:40.971Z,15.90
2022-10-21T00:40:28.200Z,15.90
2022-10-21T00:43:15.373Z,15.70
2022-10-21T00:46:05.792Z,15.70
2022-10-21T00:48:56.478Z,15.70
2022-10-21T00:51:45.374Z,15.70
2022-10-21T00:54:33.443Z,15.80
2022-10-21T00:57:22.646Z,15.80
2022-10-21T01:00:10.568Z,15.80
2022-10-21T01:02:58.213Z,15.80
2022-10-21T01:05:45.962Z,15.80
2022-10-21T01:08:33.468Z,15.90
2022-10-21T01:11:22.112Z,16.00
2022-10-21T01:14:44.753Z,16.00
2022-10-21T01:17:53.275Z,16.00
2022-10-21T01:20:56.040Z,16.10
2022-10-21T01:24:14.607Z,16.10
2022-10-21T01:27:21.355Z,16.20
2022-10-21T01:30:29.970Z,16.10
2022-10-21T01:33:32.518Z,16.10
2022-10-21T01:36:23.068Z,16.10
2022-10-21T01:39:16.360Z,16.10
2022-10-21T01:42:06.525Z,16.10
2022-10-21T01:44:56.727Z,16.10
2022-10-21T01:47:50.059Z,16.00
2022-10-21T01:50:46.541Z,16.00
2022-10-21T01:53:52.537Z,16.00
2022-10-21T01:56:41.531Z,15.90
2022-10-21T01:59:31.293Z,15.80
2022-10-21T02:02:20.652Z,15.80
2022-10-21T02:05:10.962Z,15.80
2022-10-21T02:07:58.503Z,15.70
2022-10-21T02:10:49.074Z,15.70
2022-10-21T02:13:42.518Z,15.80
2022-10-21T02:16:32.884Z,15.90
2022-10-21T02:19:21.454Z,15.90
2022-10-21T02:22:10.602Z,16.00
2022-10-21T02:25:01.203Z,16.20
2022-10-21T02:27:49.893Z,16.30
2022-10-21T02:30:48.589Z,16.20
2022-10-21T02:33:55.528Z,16.30
2022-10-21T02:36:54.891Z,16.20
2022-10-21T02:39:54.447Z,16.20
2022-10-21T02:42:44.746Z,16.30
2022-10-21T02:45:33.212Z,16.40
2022-10-21T02:48:20.355Z,16.40
2022-10-21T02:51:09.130Z,16.40
2022-10-21T02:53:56.333Z,16.50
2022-10-21T02:56:43.769Z,16.60
2022-10-21T02:59:31.252Z,16.50
2022-10-21T03:02:18.268Z,16.50
2022-10-21T03:05:06.099Z,16.60
2022-10-21T03:07:53.517Z,16.60
2022-10-21T03:10:41.368Z,16.50
2022-10-21T03:13:28.549Z,16.50
2022-10-21T03:16:15.711Z,16.60
2022-10-21T03:19:02.948Z,16.50
2022-10-21T03:21:50.753Z,16.60
2022-10-21T03:24:37.853Z,16.70
2022-10-21T03:27:25.397Z,16.70
2022-10-21T03:30:12.467Z,16.80
2022-10-21T03:32:59.927Z,16.80
2022-10-21T03:35:47.476Z,16.70
2022-10-21T03:38:35.670Z,16.60
2022-10-21T03:41:23.065Z,16.70
2022-10-21T03:44:10.404Z,16.80
2022-10-21T03:46:57.791Z,16.90
2022-10-21T03:49:45.148Z,16.80
2022-10-21T03:52:32.591Z,16.90
2022-10-21T03:55:21.054Z,17.00
2022-10-21T03:58:08.436Z,16.90
2022-10-21T04:00:56.293Z,16.90
2022-10-21T04:03:43.724Z,16.90
2022-10-21T04:06:31.358Z,16.90
2022-10-21T04:09:18.832Z,16.90
2022-10-21T04:12:06.322Z,17.00
2022-10-21T04:14:53.879Z,16.90
2022-10-21T04:17:42.166Z,16.70
2022-10-21T04:20:29.219Z,16.60
2022-10-21T04:23:16.449Z,16.60
2022-10-21T04:26:04.611Z,16.50
2022-10-21T04:28:51.937Z,16.50
2022-10-21T04:31:39.190Z,16.30
2022-10-21T04:34:26.702Z,16.20
2022-10-21T04:37:14.006Z,16.30
2022-10-21T04:40:01.216Z,16.20
2022-10-21T04:42:50.060Z,16.10
2022-10-21T04:45:39.831Z,16.20
2022-10-21T04:48:27.194Z,16.20
2022-10-21T04:51:14.740Z,16.30
2022-10-21T04:54:02.225Z,16.30
2022-10-21T04:56:49.666Z,16.20
2022-10-21T04:59:37.038Z,16.40
2022-10-21T05:02:25.564Z,16.50
2022-10-21T05:05:13.293Z,16.60
2022-10-21T05:08:01.208Z,16.70
2022-10-21T05:10:48.846Z,16.70
2022-10-21T05:13:35.927Z,16.90
2022-10-21T05:16:23.943Z,16.90
2022-10-21T05:19:12.589Z,17.00
2022-10-21T05:21:59.952Z,16.80
2022-10-21T05:24:47.408Z,16.80
2022-10-21T05:27:36.039Z,16.70
2022-10-21T05:30:23.374Z,16.80
2022-10-21T05:33:11.026Z,16.80
2022-10-21T05:36:01.717Z,16.90
2022-10-21T05:38:48.919Z,17.00
2022-10-21T05:41:36.557Z,17.10
2022-10-21T05:44:24.098Z,17.10
2022-10-21T05:47:11.603Z,17.10
2022-10-21T05:49:58.856Z,17.10
2022-10-21T05:52:46.525Z,16.90
2022-10-21T05:55:33.941Z,16.90
2022-10-21T05:58:21.340Z,17.00
2022-10-21T06:01:09.100Z,17.10
2022-10-21T06:03:56.259Z,17.20
2022-10-21T06:06:43.257Z,17.20
2022-10-21T06:09:30.692Z,17.20
2022-10-21T06:12:18.134Z,17.30
2022-10-21T06:15:06.164Z,17.30
2022-10-21T06:17:53.425Z,17.30
2022-10-21T06:20:40.940Z,17.30
2022-10-21T06:23:28.562Z,17.30
2022-10-21T06:26:16.825Z,17.30
2022-10-21T06:29:04.228Z,17.30
2022-10-21T06:31:51.711Z,17.30
2022-10-21T06:34:39.708Z,17.20
2022-10-21T06:37:27.129Z,17.20
2022-10-21T06:40:14.655Z,17.20
2022-10-21T06:43:02.534Z,17.20
2022-10-21T06:45:49.714Z,17.20
2022-10-21T06:48:37.283Z,17.30
2022-10-21T06:51:26.029Z,17.40
2022-10-21T06:54:13.342Z,17.20
2022-10-21T06:57:00.636Z,17.20
2022-10-21T06:59:48.699Z,17.30
2022-10-21T07:02:36.267Z,17.30
2022-10-21T07:05:23.423Z,17.30
2022-10-21T07:08:12.708Z,17.30
2022-10-21T07:11:00.145Z,17.40
2022-10-21T07:13:47.392Z,17.30
2022-10-21T07:16:36.726Z,17.30
2022-10-21T07:19:23.947Z,17.40
2022-10-21T07:22:11.183Z,17.30
2022-10-21T07:24:58.657Z,17.20
2022-10-21T07:27:48.274Z,17.20
2022-10-21T07:30:43.656Z,17.10
2022-10-21T07:33:30.793Z,17.00
2022-10-21T07:36:21.428Z,17.00
2022-10-21T07:39:11.882Z,17.00
2022-10-21T07:41:59.570Z,17.00
2022-10-21T07:44:46.504Z,17.00
2022-10-21T07:47:34.010Z,17.00
2022-10-21T07:50:21.420Z,17.10
2022-10-21T07:53:12.690Z,17.10
2022-10-21T07:56:16.618Z,17.00
2022-10-21T07:59:07.757Z,17.10
2022-10-21T08:01:53.954Z,17.00
2022-10-21T08:04:41.432Z,16.90
2022-10-21T08:07:29.424Z,16.80
2022-10-21T08:10:17.507Z,16.90
2022-10-21T08:13:05.093Z,17.00
2022-10-21T08:15:54.307Z,16.80
2022-10-21T08:18:42.127Z,16.70
2022-10-21T08:21:31.089Z,16.60
2022-10-21T08:24:18.787Z,16.60
2022-10-21T08:27:06.938Z,16.60
2022-10-21T08:29:54.375Z,16.60
2022-10-21T08:32:42.058Z,16.50
2022-10-21T08:35:30.171Z,16.40
2022-10-21T08:38:17.406Z,16.40
2022-10-21T08:41:14.103Z,16.40
2022-10-21T08:44:09.825Z,16.40
2022-10-21T08:47:30.991Z,16.40
2022-10-21T08:50:21.556Z,16.30
2022-10-21T08:53:15.157Z,16.20
2022-10-21T08:56:08.514Z,16.30
2022-10-21T08:58:56.248Z,16.50
2022-10-21T09:01:49.342Z,16.60
2022-10-21T09:04:39.609Z,16.60
2022-10-21T09:07:35.728Z,16.60
2022-10-21T09:10:44.213Z,16.60
2022-10-21T09:13:52.809Z,16.60
2022-10-21T09:17:02.959Z,16.60
2022-10-21T09:20:11.769Z,16.40
2022-10-21T09:23:23.605Z,16.30
2022-10-21T09:26:13.816Z,16.20
2022-10-21T09:29:22.495Z,16.20
2022-10-21T09:32:24.736Z,16.20
2022-10-21T09:35:33.233Z,16.30
2022-10-21T09:38:30.931Z,16.40
2022-10-21T09:44:12.416Z,16.50
2022-10-21T09:46:59.723Z,16.50
2022-10-21T09:50:07.567Z,16.50
2022-10-21T09:52:39.903Z,16.60
2022-10-21T09:55:29.681Z,16.50
2022-10-21T09:58:40.729Z,16.70
2022-10-21T10:01:30.206Z,16.50
2022-10-21T10:04:26.806Z,16.40
2022-10-21T10:07:28.642Z,16.60
2022-10-21T10:10:35.363Z,16.50
2022-10-21T10:13:24.050Z,16.50
2022-10-21T10:16:17.819Z,16.50
2022-10-21T10:19:17.027Z,16.40
2022-10-21T10:22:15.018Z,16.40
2022-10-21T10:25:14.371Z,16.40
2022-10-21T10:28:05.033Z,16.50
2022-10-21T10:30:55.241Z,16.60
2022-10-21T10:33:45.315Z,16.60
2022-10-21T10:36:35.793Z,16.70
2022-10-21T10:39:30.453Z,16.70
2022-10-21T10:42:30.821Z,16.70
2022-10-21T10:45:22.421Z,16.70
2022-10-21T10:48:12.715Z,16.60
2022-10-21T10:50:59.862Z,16.70
2022-10-21T10:53:48.917Z,16.70
2022-10-21T10:56:54.324Z,16.70
2022-10-21T10:59:45.071Z,16.80
2022-10-21T11:02:59.950Z,16.70
2022-10-21T11:05:50.480Z,16.70
2022-10-21T11:08:44.099Z,16.70
2022-10-21T11:11:46.136Z,16.80
2022-10-21T11:14:33.258Z,16.70
2022-10-21T11:17:24.693Z,16.80
2022-10-21T11:20:23.829Z,16.80
2022-10-21T11:23:23.170Z,16.80
2022-10-21T11:26:25.728Z,16.70
2022-10-21T11:29:25.052Z,16.60
2022-10-21T11:32:24.520Z,16.60
2022-10-21T11:35:30.208Z,16.60
2022-10-21T11:38:43.234Z,16.60
2022-10-21T11:41:42.119Z,16.60
2022-10-21T11:44:38.276Z,16.60
2022-10-21T11:47:44.985Z,16.60
2022-10-21T11:50:52.086Z,16.60
2022-10-21T11:54:04.940Z,16.60
2022-10-21T11:56:55.523Z,16.70
2022-10-21T12:00:00.802Z,16.70
2022-10-21T12:03:03.341Z,16.70
2022-10-21T12:06:02.217Z,16.70
2022-10-21T12:08:55.440Z,16.90
2022-10-21T12:11:51.421Z,17.00
2022-10-21T12:14:46.991Z,17.20
2022-10-21T12:20:26.297Z,17.20
2022-10-21T12:23:16.857Z,17.50
2022-10-21T12:26:22.825Z,17.70
2022-10-21T12:29:19.122Z,17.80
2022-10-21T12:32:21.591Z,17.80
2022-10-21T12:35:17.710Z,17.90
2022-10-21T12:38:20.301Z,18.00
2022-10-21T12:41:33.231Z,17.90
2022-10-21T12:44:26.516Z,17.70
2022-10-21T12:47:35.355Z,17.70
2022-10-21T12:50:29.763Z,17.70
2022-10-21T12:53:36.655Z,17.80
2022-10-21T12:56:32.685Z,18.10
2022-10-21T12:59:32.504Z,18.30
2022-10-21T13:02:28.080Z,18.50
2022-10-21T13:05:18.187Z,18.40
2022-10-21T13:08:23.973Z,18.40
2022-10-21T13:11:13.571Z,18.60
2022-10-21T13:14:20.903Z,18.90
2022-10-21T13:17:23.177Z,19.10
2022-10-21T13:20:22.596Z,19.10
2022-10-21T13:23:19.095Z,19.30
2022-10-21T13:26:09.458Z,19.20
2022-10-21T13:29:14.016Z,19.10
2022-10-21T13:32:18.787Z,19.30
2022-10-21T13:35:21.976Z,19.40
2022-10-21T13:38:23.937Z,19.40
2022-10-21T13:41:28.282Z,19.30
2022-10-21T13:44:27.433Z,19.30
2022-10-21T13:47:30.524Z,19.20
2022-10-21T13:50:25.418Z,19.00
2022-10-21T13:53:21.963Z,19.10
2022-10-21T13:56:11.470Z,19.30
2022-10-21T13:58:58.932Z,19.30
2022-10-21T14:01:51.955Z,19.40
2022-10-21T14:04:42.705Z,19.20
2022-10-21T14:07:30.098Z,19.20
2022-10-21T14:10:18.268Z,19.30
2022-10-21T14:13:05.711Z,19.40
2022-10-21T14:15:54.173Z,19.30
2022-10-21T14:18:44.529Z,19.30
2022-10-21T14:21:34.938Z,19.30
2022-10-21T14:24:28.482Z,19.10
2022-10-21T14:27:23.021Z,19.10
2022-10-21T14:30:13.378Z,19.10
2022-10-21T14:33:03.944Z,19.20
2022-10-21T14:36:09.496Z,19.20
2022-10-21T14:39:00.462Z,19.30
2022-10-21T14:41:49.763Z,19.20
2022-10-21T14:44:37.156Z,19.20
2022-10-21T14:47:28.549Z,19.30
2022-10-21T14:50:24.760Z,19.30
2022-10-21T14:53:20.832Z,19.40
2022-10-21T14:56:09.733Z,19.50
2022-10-21T14:58:59.976Z,19.50
2022-10-21T15:01:47.424Z,19.50
2022-10-21T15:04:52.646Z,19.60
2022-10-21T15:07:41.364Z,19.60
2022-10-21T15:10:31.637Z,19.40
2022-10-21T15:13:20.013Z,19.50
2022-10-21T15:16:09.996Z,19.50
2022-10-21T15:18:58.439Z,19.50
2022-10-21T15:21:54.856Z,19.50
2022-10-21T15:24:44.746Z,19.50
2022-10-21T15:27:36.917Z,19.50
2022-10-21T15:30:24.416Z,19.50
2022-10-21T15:33:13.052Z,19.50
2022-10-21T15:36:08.564Z,19.40
2022-10-21T15:38:55.858Z,19.40
2022-10-21T15:41:43.770Z,19.50
2022-10-21T15:44:32.833Z,19.50
2022-10-21T15:47:20.631Z,19.50
2022-10-21T15:50:19.199Z,19.50
2022-10-21T15:53:06.466Z,19.50
2022-10-21T15:55:54.793Z,19.50
2022-10-21T15:58:42.688Z,19.40
2022-10-21T16:01:29.901Z,19.10
2022-10-21T16:04:17.211Z,18.90
2022-10-21T16:07:07.973Z,18.70
2022-10-21T16:09:55.023Z,18.70
2022-10-21T16:12:42.274Z,18.50
2022-10-21T16:15:30.254Z,18.40
2022-10-21T16:18:17.608Z,18.20
2022-10-21T16:21:04.618Z,18.20
2022-10-21T16:23:53.114Z,18.20
2022-10-21T16:26:43.522Z,18.30
2022-10-21T16:29:30.930Z,18.20
2022-10-21T16:32:18.381Z,18.20
2022-10-21T16:35:05.980Z,18.20
2022-10-21T16:37:53.768Z,18.30
2022-10-21T16:40:41.121Z,18.30
2022-10-21T16:43:31.056Z,18.20
2022-10-21T16:46:33.612Z,18.20
2022-10-21T16:49:26.193Z,18.10
2022-10-21T16:52:14.234Z,18.10
2022-10-21T16:55:02.472Z,18.20
2022-10-21T16:57:49.688Z,18.10
2022-10-21T17:00:37.245Z,18.10
2022-10-21T17:03:24.849Z,18.20
2022-10-21T17:06:19.799Z,18.10
2022-10-21T17:09:07.401Z,18.10
2022-10-21T17:11:54.707Z,18.00
2022-10-21T17:14:41.710Z,18.00
2022-10-21T17:17:29.200Z,18.00
2022-10-21T17:20:16.652Z,18.10
2022-10-21T17:23:04.312Z,18.10
2022-10-21T17:25:51.872Z,18.20
2022-10-21T17:28:39.386Z,18.00
2022-10-21T17:31:31.477Z,18.10
2022-10-21T17:34:27.848Z,18.10
2022-10-21T17:37:15.377Z,18.10
2022-10-21T17:40:03.045Z,18.10
2022-10-21T17:42:51.053Z,18.10
2022-10-21T17:45:38.766Z,18.00
2022-10-21T17:48:26.216Z,18.00
2022-10-21T17:51:13.512Z,18.00
2022-10-21T17:54:00.999Z,18.00
2022-10-21T17:56:51.176Z,17.90
2022-10-21T17:59:38.346Z,17.90
2022-10-21T18:02:28.589Z,17.90
2022-10-21T18:05:15.903Z,17.90
2022-10-21T18:08:03.370Z,17.80
2022-10-21T18:10:55.514Z,17.80
2022-10-21T18:13:44.085Z,17.90
2022-10-21T18:16:31.380Z,17.90
2022-10-21T18:19:18.830Z,17.80
2022-10-21T18:22:06.510Z,17.80
2022-10-21T18:24:53.776Z,17.90
2022-10-21T18:27:42.040Z,18.00
2022-10-21T18:30:29.796Z,18.00
2022-10-21T18:33:16.993Z,18.00
2022-10-21T18:36:12.121Z,18.10
2022-10-21T18:39:00.538Z,18.30
2022-10-21T18:41:47.915Z,18.40
2022-10-21T18:44:35.007Z,18.40
2022-10-21T18:47:22.290Z,18.30
2022-10-21T18:50:10.971Z,18.30
2022-10-21T18:52:59.222Z,18.20
2022-10-21T18:55:46.391Z,18.20
2022-10-21T18:58:34.514Z,18.20
2022-10-21T19:01:23.858Z,18.20
2022-10-21T19:06:58.691Z,18.30
2022-10-21T19:09:46.816Z,18.40
2022-10-21T19:12:34.210Z,18.20
2022-10-21T19:15:21.969Z,18.20
2022-10-21T19:18:12.453Z,18.10
2022-10-21T19:21:00.038Z,18.00
2022-10-21T19:23:47.582Z,18.10
2022-10-21T19:26:36.890Z,18.20
2022-10-21T19:29:25.531Z,18.20
2022-10-21T19:32:16.008Z,18.10
2022-10-21T19:35:03.576Z,18.00
2022-10-21T19:37:56.671Z,18.00
2022-10-21T19:40:42.619Z,17.90
2022-10-21T19:43:30.361Z,17.70
2022-10-21T19:46:23.463Z,17.70
2022-10-21T19:49:11.110Z,17.70
2022-10-21T19:51:58.697Z,17.70
2022-10-21T19:54:46.614Z,17.60
2022-10-21T19:57:34.452Z,17.80
2022-10-21T20:00:21.974Z,17.90
2022-10-21T20:03:09.672Z,18.10
2022-10-21T20:05:57.654Z,18.10
2022-10-21T20:08:45.028Z,18.10
2022-10-21T20:11:32.548Z,18.20
2022-10-21T20:14:20.020Z,18.10
2022-10-21T20:17:07.601Z,18.00
2022-10-21T20:19:55.067Z,18.10
2022-10-21T20:22:42.959Z,18.10
2022-10-21T20:25:30.559Z,18.00
2022-10-21T20:28:18.581Z,17.90
2022-10-21T20:31:11.457Z,17.80
2022-10-21T20:33:58.718Z,17.90
2022-10-21T20:36:46.177Z,17.90
2022-10-21T20:39:33.236Z,17.90
2022-10-21T20:42:20.661Z,17.80
2022-10-21T20:45:08.319Z,17.80
2022-10-21T20:47:55.440Z,17.80
2022-10-21T20:50:42.868Z,17.70
2022-10-21T20:53:31.784Z,17.50
2022-10-21T20:56:19.757Z,17.30
2022-10-21T20:59:08.465Z,17.20
2022-10-21T21:01:56.017Z,17.20
2022-10-21T21:04:43.338Z,17.20
2022-10-21T21:07:30.791Z,17.10
2022-10-21T21:10:18.316Z,17.10
2022-10-21T21:13:06.049Z,17.00
2022-10-21T21:15:55.177Z,17.00
2022-10-21T21:18:44.079Z,17.10
2022-10-21T21:21:33.501Z,17.10
2022-10-21T21:24:20.544Z,17.10
2022-10-21T21:27:07.861Z,17.10
2022-10-21T21:29:55.072Z,17.10
2022-10-21T21:32:42.573Z,17.10
2022-10-21T21:35:30.165Z,17.10
2022-10-21T21:38:17.591Z,17.10
2022-10-21T21:41:08.085Z,17.20
2022-10-21T21:43:56.642Z,17.20
2022-10-21T21:46:44.052Z,17.30
2022-10-21T21:49:31.432Z,17.30
2022-10-21T21:52:18.848Z,17.30
2022-10-21T21:55:06.605Z,17.30
2022-10-21T21:57:53.933Z,17.30
2022-10-21T22:00:41.134Z,17.30
2022-10-21T22:03:28.270Z,17.30
2022-10-21T22:06:17.767Z,17.40
2022-10-21T22:09:11.145Z,17.50
2022-10-21T22:11:59.353Z,17.40
2022-10-21T22:14:46.824Z,17.50
2022-10-21T22:17:34.465Z,17.50
2022-10-21T22:20:22.757Z,17.40
2022-10-21T22:23:09.651Z,17.40
2022-10-21T22:25:58.739Z,17.50
2022-10-21T22:28:47.197Z,17.30
2022-10-21T22:31:34.539Z,17.30
2022-10-21T22:34:21.709Z,17.30
2022-10-21T22:37:09.097Z,17.40
2022-10-21T22:39:56.563Z,17.40
2022-10-21T22:45:32.876Z,17.10
2022-10-21T22:48:20.219Z,17.10
2022-10-21T22:51:07.730Z,17.20
2022-10-21T22:53:56.390Z,17.30
2022-10-21T22:56:44.213Z,17.30
2022-10-21T22:59:31.647Z,17.30
2022-10-21T23:02:18.883Z,17.40
2022-10-21T23:05:06.403Z,17.40
2022-10-21T23:07:53.933Z,17.30
2022-10-21T23:10:41.231Z,17.40
2022-10-21T23:13:29.458Z,17.50
2022-10-21T23:16:17.077Z,17.50
2022-10-21T23:19:04.613Z,17.40
2022-10-21T23:21:51.605Z,17.30
2022-10-21T23:24:39.156Z,17.10
2022-10-21T23:27:29.539Z,17.00
2022-10-21T23:30:17.068Z,17.00
2022-10-21T23:33:04.249Z,17.00
2022-10-21T23:35:51.886Z,17.00
2022-10-21T23:38:39.511Z,17.00
2022-10-21T23:41:26.923Z,16.90
2022-10-21T23:44:15.898Z,16.90
2022-10-21T23:47:03.021Z,16.90
2022-10-21T23:49:50.340Z,16.90
2022-10-21T23:52:38.931Z,16.90
2022-10-21T23:55:27.231Z,16.80
2022-10-21T23:58:14.473Z,16.80
